Time;durP1;ratioP1;P1;durP2;ratioP2;P2;SDS_P1;SDS_P2;PMS_P1;PMS_P2;Temp;Humidity;BMP_temperature;BMP_pressure;BME280_temperature;BME280_humidity;BME280_pressure;Samples;Min_cycle;Max_cycle;Signal;HPM_P1;HPM_P2
2023/12/29 00:01:30;;;;;;;18.00;3.58;;;;;;;;;;5027194;28;25114;-72
2023/12/29 00:03:56;;;;;;;19.15;4.75;;;;;;;;;;5026699;28;25137;-72
2023/12/29 00:06:22;;;;;;;21.48;4.00;;;;;;;;;;5025019;28;25054;-72
2023/12/29 00:08:48;;;;;;;16.98;3.90;;;;;;;;;;5026946;28;25080;-72
2023/12/29 00:11:20;;;;;;;18.23;3.80;;;;;;;;;;5021192;28;25059;-71
2023/12/29 00:13:47;;;;;;;23.35;5.20;;;;;;;;;;5023685;28;25067;-73
2023/12/29 00:16:13;;;;;;;16.88;3.25;;;;;;;;;;5023153;28;25142;-73
2023/12/29 00:18:39;;;;;;;18.63;4.63;;;;;;;;;;5027631;28;25152;-72
2023/12/29 00:21:05;;;;;;;22.48;4.00;;;;;;;;;;5023418;28;25075;-71
2023/12/29 00:23:31;;;;;;;16.75;4.10;;;;;;;;;;5026391;28;25053;-72
2023/12/29 00:25:57;;;;;;;21.77;4.05;;;;;;;;;;5025703;28;25075;-71
2023/12/29 00:28:23;;;;;;;20.05;4.60;;;;;;;;;;5024371;28;25081;-72
2023/12/29 00:30:49;;;;;;;16.52;4.35;;;;;;;;;;5045663;28;25084;-72
2023/12/29 00:33:15;;;;;;;25.92;5.20;;;;;;;;;;5029219;28;25109;-71
2023/12/29 00:35:41;;;;;;;18.05;4.00;;;;;;;;;;5033223;28;25100;-72
2023/12/29 00:38:07;;;;;;;15.27;4.13;;;;;;;;;;5030217;28;25055;-72
2023/12/29 00:40:33;;;;;;;23.10;5.38;;;;;;;;;;5029857;28;25067;-71
2023/12/29 00:43:02;;;;;;;22.15;4.25;;;;;;;;;;5031264;28;25074;-72
2023/12/29 00:45:37;;;;;;;20.63;3.58;;;;;;;;;;5033781;28;25100;-71
2023/12/29 00:48:03;;;;;;;28.95;5.00;;;;;;;;;;5033804;28;25051;-72
2023/12/29 00:50:29;;;;;;;20.23;4.25;;;;;;;;;;5029956;28;25054;-72
2023/12/29 00:52:56;;;;;;;17.20;3.97;;;;;;;;;;5034183;28;25071;-71
2023/12/29 00:55:22;;;;;;;16.25;4.30;;;;;;;;;;5032815;28;25139;-72
2023/12/29 00:57:48;;;;;;;20.45;3.78;;;;;;;;;;5029704;28;25157;-71
2023/12/29 01:00:15;;;;;;;15.15;3.25;;;;;;;;;;5027576;28;25046;-70
2023/12/29 01:02:41;;;;;;;19.15;4.22;;;;;;;;;;5033211;28;25081;-70
2023/12/29 01:05:07;;;;;;;26.27;4.43;;;;;;;;;;5030859;28;25170;-71
2023/12/29 01:07:33;;;;;;;18.75;3.40;;;;;;;;;;5028307;28;25136;-71
2023/12/29 01:09:59;;;;;;;19.73;3.42;;;;;;;;;;5027940;28;25061;-71
2023/12/29 01:12:25;;;;;;;23.73;4.05;;;;;;;;;;5029463;28;25067;-72
2023/12/29 01:14:51;;;;;;;19.48;4.28;;;;;;;;;;5029349;28;25094;-71
2023/12/29 01:17:17;;;;;;;21.45;3.75;;;;;;;;;;5024412;28;25096;-71
2023/12/29 01:19:43;;;;;;;16.30;3.83;;;;;;;;;;5029679;28;25077;-72
2023/12/29 01:22:09;;;;;;;11.43;3.60;;;;;;;;;;5023604;28;25084;-72
2023/12/29 01:24:35;;;;;;;16.30;4.07;;;;;;;;;;5021980;28;25085;-71
2023/12/29 01:27:04;;;;;;;20.90;3.65;;;;;;;;;;5027065;28;25084;-71
2023/12/29 01:29:29;;;;;;;14.15;3.45;;;;;;;;;;5022245;28;25133;-72
2023/12/29 01:31:55;;;;;;;17.17;3.75;;;;;;;;;;5031145;28;25057;-71
2023/12/29 01:34:21;;;;;;;16.90;3.88;;;;;;;;;;5033421;28;25156;-71
2023/12/29 01:36:47;;;;;;;15.73;3.70;;;;;;;;;;5020685;28;25110;-73
2023/12/29 01:39:13;;;;;;;19.50;4.65;;;;;;;;;;5027398;28;25128;-72
2023/12/29 01:41:39;;;;;;;21.10;3.45;;;;;;;;;;5027846;28;25151;-72
2023/12/29 01:44:23;;;;;;;16.10;4.07;;;;;;;;;;5028575;28;25098;-71
2023/12/29 01:46:51;;;;;;;24.55;4.35;;;;;;;;;;5024723;28;25076;-73
2023/12/29 01:49:17;;;;;;;18.83;4.22;;;;;;;;;;5028122;28;25062;-71
2023/12/29 01:51:44;;;;;;;16.38;4.10;;;;;;;;;;5023751;28;25056;-71
2023/12/29 01:54:11;;;;;;;20.10;4.07;;;;;;;;;;5024112;28;25154;-72
2023/12/29 01:56:37;;;;;;;20.70;4.65;;;;;;;;;;5027067;28;25080;-73
2023/12/29 01:59:04;;;;;;;16.23;4.10;;;;;;;;;;5023564;28;25071;-73
2023/12/29 02:01:30;;;;;;;16.00;4.00;;;;;;;;;;5024278;28;25074;-74
2023/12/29 02:03:56;;;;;;;23.15;5.72;;;;;;;;;;5021771;28;25061;-72
2023/12/29 02:06:22;;;;;;;18.42;4.78;;;;;;;;;;5030625;28;25107;-72
2023/12/29 02:08:49;;;;;;;20.13;4.60;;;;;;;;;;5026959;28;25075;-72
2023/12/29 02:11:15;;;;;;;18.27;4.50;;;;;;;;;;5028382;28;25133;-72
2023/12/29 02:13:41;;;;;;;19.77;4.72;;;;;;;;;;5024711;28;25074;-70
2023/12/29 02:16:09;;;;;;;24.38;6.05;;;;;;;;;;5025228;28;25062;-70
2023/12/29 02:18:36;;;;;;;21.83;4.65;;;;;;;;;;5027764;28;25065;-72
2023/12/29 02:21:03;;;;;;;18.80;4.70;;;;;;;;;;5024943;28;25069;-71
2023/12/29 02:23:29;;;;;;;34.90;5.72;;;;;;;;;;5026635;28;25066;-71
2023/12/29 02:25:57;;;;;;;23.65;4.50;;;;;;;;;;5020324;28;25144;-72
2023/12/29 02:28:25;;;;;;;20.52;5.03;;;;;;;;;;5036486;28;25083;-71
2023/12/29 02:31:01;;;;;;;22.08;4.30;;;;;;;;;;5024183;28;25062;-71
2023/12/29 02:33:28;;;;;;;22.60;5.05;;;;;;;;;;5028430;28;25164;-71
2023/12/29 02:35:57;;;;;;;18.40;3.60;;;;;;;;;;5028506;28;25146;-71
2023/12/29 02:38:27;;;;;;;19.75;4.80;;;;;;;;;;5027252;28;25145;-71
2023/12/29 02:40:54;;;;;;;19.88;5.20;;;;;;;;;;5027536;28;25114;-71
2023/12/29 02:43:19;;;;;;;23.92;4.20;;;;;;;;;;5029475;28;25139;-72
2023/12/29 02:45:45;;;;;;;20.45;5.03;;;;;;;;;;5029035;28;25119;-70
2023/12/29 02:48:11;;;;;;;21.83;4.82;;;;;;;;;;5026591;28;25142;-71
2023/12/29 02:50:38;;;;;;;18.60;3.83;;;;;;;;;;5028880;28;25102;-71
2023/12/29 02:53:04;;;;;;;21.92;4.60;;;;;;;;;;5026895;28;25075;-71
2023/12/29 02:55:30;;;;;;;22.48;4.75;;;;;;;;;;5021126;28;25060;-72
2023/12/29 02:57:57;;;;;;;25.08;5.32;;;;;;;;;;5023684;28;25104;-72
2023/12/29 03:00:23;;;;;;;24.13;4.55;;;;;;;;;;5026104;28;25078;-72
2023/12/29 03:02:50;;;;;;;15.82;4.57;;;;;;;;;;5029091;28;25066;-71
2023/12/29 03:05:16;;;;;;;25.80;5.50;;;;;;;;;;5028516;28;25148;-72
2023/12/29 03:07:42;;;;;;;20.08;4.72;;;;;;;;;;5023950;28;25046;-72
2023/12/29 03:10:08;;;;;;;15.65;4.25;;;;;;;;;;5024946;28;25069;-72
2023/12/29 03:12:34;;;;;;;16.85;4.35;;;;;;;;;;5033113;28;25158;-71
2023/12/29 03:15:00;;;;;;;26.27;6.18;;;;;;;;;;5032130;28;25120;-71
2023/12/29 03:17:26;;;;;;;24.92;4.72;;;;;;;;;;5037641;28;25129;-72
2023/12/29 03:19:53;;;;;;;25.27;5.25;;;;;;;;;;5033215;28;25097;-71
2023/12/29 03:22:19;;;;;;;23.25;4.43;;;;;;;;;;5029180;28;25075;-72
2023/12/29 03:24:46;;;;;;;19.20;3.63;;;;;;;;;;5033064;28;25066;-70
2023/12/29 03:27:12;;;;;;;18.83;4.65;;;;;;;;;;5031680;28;25057;-72
2023/12/29 03:29:38;;;;;;;18.75;4.10;;;;;;;;;;5032058;28;25075;-70
2023/12/29 03:32:04;;;;;;;18.50;4.40;;;;;;;;;;5031929;28;25073;-70
2023/12/29 03:34:30;;;;;;;19.42;4.43;;;;;;;;;;5032123;28;25129;-71
2023/12/29 03:36:55;;;;;;;20.75;4.75;;;;;;;;;;5032563;28;25066;-71
2023/12/29 03:39:21;;;;;;;22.65;4.47;;;;;;;;;;5030539;28;25104;-72
2023/12/29 03:41:47;;;;;;;22.40;4.75;;;;;;;;;;5032171;28;25086;-71
2023/12/29 03:44:13;;;;;;;24.17;4.85;;;;;;;;;;5030232;28;25124;-71
2023/12/29 03:46:39;;;;;;;22.92;4.78;;;;;;;;;;5030759;28;25075;-70
2023/12/29 03:49:05;;;;;;;27.00;5.13;;;;;;;;;;5029500;28;25149;-72
2023/12/29 03:51:31;;;;;;;28.60;5.35;;;;;;;;;;5031474;28;25102;-72
2023/12/29 03:54:00;;;;;;;19.33;3.90;;;;;;;;;;5027207;28;25124;-71
2023/12/29 03:56:27;;;;;;;22.20;4.50;;;;;;;;;;5040300;28;25058;-73
2023/12/29 03:58:52;;;;;;;25.08;4.63;;;;;;;;;;5041515;28;25137;-70
2023/12/29 04:01:19;;;;;;;27.95;5.50;;;;;;;;;;5031949;28;25072;-70
2023/12/29 04:03:46;;;;;;;24.92;5.53;;;;;;;;;;5030562;28;25070;-72
2023/12/29 04:06:12;;;;;;;25.75;4.90;;;;;;;;;;5034058;28;25052;-72
2023/12/29 04:08:38;;;;;;;27.73;6.43;;;;;;;;;;5031828;28;25135;-70
2023/12/29 04:11:05;;;;;;;26.88;5.20;;;;;;;;;;5030232;28;25079;-72
2023/12/29 04:13:32;;;;;;;16.50;4.47;;;;;;;;;;5024265;28;25122;-72
2023/12/29 04:15:58;;;;;;;26.40;5.30;;;;;;;;;;5032310;28;25056;-71
2023/12/29 04:18:25;;;;;;;28.30;5.40;;;;;;;;;;5030008;28;25163;-70
2023/12/29 04:20:51;;;;;;;24.25;5.63;;;;;;;;;;5031089;28;25084;-73
2023/12/29 04:23:17;;;;;;;25.52;5.50;;;;;;;;;;5029960;28;25048;-70
2023/12/29 04:25:43;;;;;;;25.25;5.13;;;;;;;;;;5026952;28;25074;-71
2023/12/29 04:28:10;;;;;;;21.88;5.35;;;;;;;;;;5030066;28;25087;-71
2023/12/29 04:30:36;;;;;;;24.88;4.30;;;;;;;;;;5031597;28;25177;-73
2023/12/29 04:33:02;;;;;;;16.77;4.20;;;;;;;;;;5030002;28;25075;-72
2023/12/29 04:35:28;;;;;;;20.35;4.85;;;;;;;;;;5031285;28;25149;-72
2023/12/29 04:37:54;;;;;;;26.38;4.78;;;;;;;;;;5027674;28;25151;-71
2023/12/29 04:40:20;;;;;;;26.15;4.80;;;;;;;;;;5031054;28;25060;-73
2023/12/29 04:42:46;;;;;;;24.00;6.13;;;;;;;;;;5028175;28;25068;-71
2023/12/29 04:45:12;;;;;;;21.00;5.50;;;;;;;;;;5027958;28;25058;-72
2023/12/29 04:47:38;;;;;;;31.95;5.25;;;;;;;;;;5029430;28;25064;-72
2023/12/29 04:50:05;;;;;;;21.60;4.68;;;;;;;;;;5028787;28;25136;-71
2023/12/29 04:52:31;;;;;;;21.05;5.00;;;;;;;;;;5031674;28;25081;-72
2023/12/29 04:54:57;;;;;;;23.67;5.00;;;;;;;;;;5031282;28;25083;-71
2023/12/29 04:57:23;;;;;;;28.40;5.57;;;;;;;;;;5021801;28;25123;-71
2023/12/29 04:59:49;;;;;;;22.88;4.97;;;;;;;;;;5028510;28;25054;-71
2023/12/29 05:02:15;;;;;;;24.88;4.68;;;;;;;;;;5030173;28;25160;-72
2023/12/29 05:04:41;;;;;;;26.75;4.82;;;;;;;;;;5027166;28;25091;-70
2023/12/29 05:07:09;;;;;;;24.23;6.18;;;;;;;;;;5027317;28;25137;-71
2023/12/29 05:09:35;;;;;;;24.05;5.45;;;;;;;;;;5028211;28;25131;-69
2023/12/29 05:12:01;;;;;;;29.10;5.47;;;;;;;;;;5040048;28;25100;-71
2023/12/29 05:14:27;;;;;;;27.75;5.53;;;;;;;;;;5030998;28;25085;-73
2023/12/29 05:16:53;;;;;;;25.70;5.70;;;;;;;;;;5032204;28;25133;-72
2023/12/29 05:19:19;;;;;;;25.15;5.53;;;;;;;;;;5029696;28;25121;-72
2023/12/29 05:21:45;;;;;;;19.95;5.18;;;;;;;;;;5028173;28;25130;-73
2023/12/29 05:24:12;;;;;;;24.58;4.72;;;;;;;;;;5026465;28;25067;-72
2023/12/29 05:26:38;;;;;;;25.13;5.47;;;;;;;;;;5032098;28;25105;-72
2023/12/29 05:29:04;;;;;;;31.30;6.07;;;;;;;;;;5026162;28;25091;-71
2023/12/29 05:31:30;;;;;;;21.30;5.88;;;;;;;;;;5029547;28;25074;-71
2023/12/29 05:33:56;;;;;;;21.35;5.07;;;;;;;;;;5024918;28;25078;-73
2023/12/29 05:36:22;;;;;;;23.85;4.97;;;;;;;;;;5030477;28;25049;-72
2023/12/29 05:38:48;;;;;;;17.45;4.63;;;;;;;;;;5029322;28;25052;-72
2023/12/29 05:41:14;;;;;;;18.38;4.55;;;;;;;;;;5027551;28;25056;-72
2023/12/29 05:43:40;;;;;;;25.02;4.70;;;;;;;;;;5028611;28;25079;-72
2023/12/29 05:46:11;;;;;;;20.63;4.68;;;;;;;;;;5030965;28;25105;-72
2023/12/29 05:48:37;;;;;;;28.95;5.03;;;;;;;;;;5026399;28;25071;-72
2023/12/29 05:51:09;;;;;;;25.58;5.32;;;;;;;;;;5029246;28;25126;-72
2023/12/29 05:53:35;;;;;;;;;;;;;;;;;;5031156;28;25142;-71
2023/12/29 05:56:01;;;;;;;25.40;5.05;;;;;;;;;;5030493;28;25064;-72
2023/12/29 05:58:27;;;;;;;28.38;5.13;;;;;;;;;;5034534;28;25059;-72
2023/12/29 06:00:55;;;;;;;21.58;4.50;;;;;;;;;;5036220;28;25081;-74
2023/12/29 06:03:21;;;;;;;21.05;4.82;;;;;;;;;;5030909;28;25049;-72
2023/12/29 06:05:48;;;;;;;14.60;4.40;;;;;;;;;;5026741;28;25063;-71
2023/12/29 06:08:14;;;;;;;23.98;5.38;;;;;;;;;;5022894;28;25049;-73
2023/12/29 06:10:40;;;;;;;19.60;4.70;;;;;;;;;;5030880;28;25050;-71
2023/12/29 06:13:06;;;;;;;20.55;4.85;;;;;;;;;;5030051;28;25076;-71
2023/12/29 06:15:33;;;;;;;14.90;4.38;;;;;;;;;;5026545;28;25106;-72
2023/12/29 06:17:59;;;;;;;16.85;4.75;;;;;;;;;;5030339;28;25102;-73
2023/12/29 06:20:25;;;;;;;15.05;3.92;;;;;;;;;;5030450;28;25055;-70
2023/12/29 06:22:51;;;;;;;11.55;3.63;;;;;;;;;;5028362;28;25071;-71
2023/12/29 06:25:17;;;;;;;17.35;4.60;;;;;;;;;;5026939;28;25135;-70
2023/12/29 06:27:43;;;;;;;21.02;4.80;;;;;;;;;;5027374;28;25103;-71
2023/12/29 06:30:13;;;;;;;19.25;4.88;;;;;;;;;;5027765;28;25161;-70
2023/12/29 06:32:39;;;;;;;16.38;5.20;;;;;;;;;;5026819;28;25097;-70
2023/12/29 06:35:06;;;;;;;15.15;5.22;;;;;;;;;;5028263;28;25139;-70
2023/12/29 06:37:32;;;;;;;26.58;7.45;;;;;;;;;;5029030;28;25072;-70
2023/12/29 06:39:59;;;;;;;24.48;7.20;;;;;;;;;;5019432;28;25163;-68
2023/12/29 06:42:25;;;;;;;13.27;6.00;;;;;;;;;;5024865;28;25070;-69
2023/12/29 06:44:51;;;;;;;20.45;8.38;;;;;;;;;;5025072;28;25072;-68
2023/12/29 06:47:17;;;;;;;19.02;7.28;;;;;;;;;;5029343;28;25138;-71
2023/12/29 06:49:43;;;;;;;18.20;7.20;;;;;;;;;;5027369;28;25070;-71
2023/12/29 06:52:09;;;;;;;24.77;7.72;;;;;;;;;;5025289;28;25066;-71
2023/12/29 06:54:35;;;;;;;19.77;5.95;;;;;;;;;;5025560;28;25074;-72
2023/12/29 06:57:01;;;;;;;20.20;6.78;;;;;;;;;;5026887;28;25073;-72
2023/12/29 06:59:27;;;;;;;20.65;6.03;;;;;;;;;;5022970;28;25065;-69
2023/12/29 07:01:53;;;;;;;23.10;7.97;;;;;;;;;;5027703;28;25071;-70
2023/12/29 07:04:18;;;;;;;14.88;7.45;;;;;;;;;;5025028;28;25102;-70
2023/12/29 07:06:44;;;;;;;16.20;6.55;;;;;;;;;;5027289;28;25079;-71
2023/12/29 07:09:10;;;;;;;18.30;7.10;;;;;;;;;;5023553;28;25148;-71
2023/12/29 07:11:36;;;;;;;16.58;6.38;;;;;;;;;;5021466;28;25049;-69
2023/12/29 07:14:03;;;;;;;16.35;6.88;;;;;;;;;;5020501;28;25078;-70
2023/12/29 07:16:29;;;;;;;16.15;6.57;;;;;;;;;;5028140;28;25095;-70
2023/12/29 07:18:55;;;;;;;18.38;6.05;;;;;;;;;;5028618;28;25050;-70
2023/12/29 07:21:21;;;;;;;13.25;6.22;;;;;;;;;;5031418;28;25061;-70
2023/12/29 07:23:47;;;;;;;15.73;6.47;;;;;;;;;;5030489;28;25072;-69
2023/12/29 07:26:13;;;;;;;13.93;6.40;;;;;;;;;;5018821;28;25134;-70
2023/12/29 07:28:39;;;;;;;13.82;6.10;;;;;;;;;;5026109;28;25059;-71
2023/12/29 07:31:05;;;;;;;15.57;7.40;;;;;;;;;;5027427;28;25105;-69
2023/12/29 07:33:31;;;;;;;12.98;5.13;;;;;;;;;;5017191;28;25057;-70
2023/12/29 07:35:57;;;;;;;14.48;7.60;;;;;;;;;;5024055;28;25134;-69
2023/12/29 07:38:24;;;;;;;18.08;6.78;;;;;;;;;;5020349;28;25104;-69
2023/12/29 07:40:49;;;;;;;13.80;6.10;;;;;;;;;;5023546;28;25068;-70
2023/12/29 07:43:15;;;;;;;12.25;5.20;;;;;;;;;;5024754;28;25143;-69
2023/12/29 07:45:43;;;;;;;11.45;6.63;;;;;;;;;;5027567;28;25084;-68
2023/12/29 07:48:09;;;;;;;16.45;6.28;;;;;;;;;;5027012;28;25141;-70
2023/12/29 07:50:36;;;;;;;13.30;5.95;;;;;;;;;;5021960;28;25136;-67
2023/12/29 07:53:03;;;;;;;10.80;5.40;;;;;;;;;;5027333;28;25063;-70
2023/12/29 07:55:29;;;;;;;11.95;5.88;;;;;;;;;;5028981;28;25141;-69
2023/12/29 07:57:55;;;;;;;11.00;5.38;;;;;;;;;;5035501;28;25043;-70
2023/12/29 08:00:22;;;;;;;15.68;6.15;;;;;;;;;;5035690;28;25044;-70
2023/12/29 08:02:48;;;;;;;12.68;5.95;;;;;;;;;;5032778;28;25056;-69
2023/12/29 08:05:15;;;;;;;14.55;6.43;;;;;;;;;;5034633;28;25151;-70
2023/12/29 08:07:41;;;;;;;12.05;6.20;;;;;;;;;;5033442;28;25073;-69
2023/12/29 08:10:08;;;;;;;15.30;6.07;;;;;;;;;;5028885;28;25055;-70
2023/12/29 08:12:35;;;;;;;13.20;5.57;;;;;;;;;;5030682;28;25141;-70
2023/12/29 08:15:02;;;;;;;8.75;5.03;;;;;;;;;;5027907;28;25077;-71
2023/12/29 08:17:28;;;;;;;15.02;5.10;;;;;;;;;;5030320;28;25155;-71
2023/12/29 08:19:55;;;;;;;7.35;4.68;;;;;;;;;;5035332;28;25072;-70
2023/12/29 08:22:22;;;;;;;10.00;4.40;;;;;;;;;;5028703;28;25073;-70
2023/12/29 08:24:48;;;;;;;7.88;4.30;;;;;;;;;;5030564;28;25052;-71
2023/12/29 08:27:15;;;;;;;10.32;5.28;;;;;;;;;;5028823;28;25091;-70
2023/12/29 08:29:41;;;;;;;9.40;4.53;;;;;;;;;;5029712;28;25091;-71
2023/12/29 08:32:07;;;;;;;9.32;4.10;;;;;;;;;;5030966;28;25082;-71
2023/12/29 08:34:37;;;;;;;7.13;3.90;;;;;;;;;;5030315;28;25065;-69
2023/12/29 08:37:04;;;;;;;13.60;4.78;;;;;;;;;;5030872;28;25088;-70
2023/12/29 08:39:30;;;;;;;10.52;4.75;;;;;;;;;;5032674;28;25086;-70
2023/12/29 08:41:56;;;;;;;15.07;5.22;;;;;;;;;;5038072;28;25052;-70
2023/12/29 08:44:22;;;;;;;11.85;5.28;;;;;;;;;;5036184;28;25142;-68
2023/12/29 08:46:49;;;;;;;12.25;4.20;;;;;;;;;;5032347;28;25072;-70
2023/12/29 08:49:15;;;;;;;8.82;4.03;;;;;;;;;;5027881;28;25166;-68
2023/12/29 08:51:41;;;;;;;10.02;3.70;;;;;;;;;;5026588;28;25156;-68
2023/12/29 08:54:07;;;;;;;8.25;3.50;;;;;;;;;;5025407;28;25072;-70
2023/12/29 08:56:33;;;;;;;9.98;3.88;;;;;;;;;;5029006;28;25080;-70
2023/12/29 08:58:59;;;;;;;11.10;3.55;;;;;;;;;;5028202;28;25057;-72
2023/12/29 09:01:25;;;;;;;9.70;2.90;;;;;;;;;;5027636;28;25068;-69
2023/12/29 09:03:50;;;;;;;5.90;2.88;;;;;;;;;;5028114;28;25055;-68
2023/12/29 09:06:16;;;;;;;10.02;3.40;;;;;;;;;;5027236;28;24873;-68
2023/12/29 09:08:42;;;;;;;7.32;2.90;;;;;;;;;;5028908;28;25110;-69
2023/12/29 09:11:08;;;;;;;7.47;3.28;;;;;;;;;;5031729;28;25058;-69
2023/12/29 09:13:34;;;;;;;8.73;2.88;;;;;;;;;;5028674;28;25066;-69
2023/12/29 09:16:00;;;;;;;7.00;3.38;;;;;;;;;;5041584;28;25138;-70
2023/12/29 09:18:26;;;;;;;6.20;3.45;;;;;;;;;;5032588;28;25129;-68
2023/12/29 09:20:52;;;;;;;8.07;3.17;;;;;;;;;;5027875;28;25119;-69
2023/12/29 09:23:18;;;;;;;11.57;3.75;;;;;;;;;;5028838;28;25150;-68
2023/12/29 09:25:45;;;;;;;9.35;3.58;;;;;;;;;;5028879;28;25075;-70
2023/12/29 09:28:12;;;;;;;5.43;2.67;;;;;;;;;;5030824;28;25128;-69
2023/12/29 09:30:38;;;;;;;8.68;3.05;;;;;;;;;;5031817;28;25060;-69
2023/12/29 09:33:04;;;;;;;8.88;3.40;;;;;;;;;;5029285;28;25073;-68
2023/12/29 09:35:30;;;;;;;9.15;2.60;;;;;;;;;;5028942;28;25065;-69
2023/12/29 09:37:59;;;;;;;7.20;2.97;;;;;;;;;;5028312;28;25064;-69
2023/12/29 09:40:25;;;;;;;6.47;2.75;;;;;;;;;;5027559;28;25078;-69
2023/12/29 09:42:52;;;;;;;5.65;2.53;;;;;;;;;;5027769;28;25055;-70
2023/12/29 09:45:23;;;;;;;12.73;3.28;;;;;;;;;;5026829;28;25075;-69
2023/12/29 09:47:51;;;;;;;6.47;2.53;;;;;;;;;;5026115;28;25068;-70
2023/12/29 09:50:18;;;;;;;5.10;2.92;;;;;;;;;;5027706;28;25115;-69
2023/12/29 09:52:44;;;;;;;8.60;2.95;;;;;;;;;;5028404;28;25066;-70
2023/12/29 09:55:11;;;;;;;4.13;2.30;;;;;;;;;;5029027;28;25083;-71
2023/12/29 09:57:38;;;;;;;5.40;2.10;;;;;;;;;;5028722;28;25123;-70
2023/12/29 10:00:04;;;;;;;4.65;2.25;;;;;;;;;;5027341;28;25068;-70
2023/12/29 10:02:31;;;;;;;4.93;2.30;;;;;;;;;;5026315;28;25074;-69
2023/12/29 10:04:57;;;;;;;4.97;2.10;;;;;;;;;;5026279;28;25062;-71
2023/12/29 10:07:26;;;;;;;4.32;2.20;;;;;;;;;;5028369;28;25059;-71
2023/12/29 10:09:58;;;;;;;9.40;2.30;;;;;;;;;;5031137;28;25071;-69
2023/12/29 10:12:25;;;;;;;7.50;2.40;;;;;;;;;;5027729;28;25058;-70
2023/12/29 10:15:10;;;;;;;8.18;2.05;;;;;;;;;;5029203;28;25145;-69
2023/12/29 10:17:41;;;;;;;3.85;1.95;;;;;;;;;;5029917;28;25056;-70
2023/12/29 10:20:15;;;;;;;7.82;2.80;;;;;;;;;;5027384;28;25062;-70
2023/12/29 10:22:52;;;;;;;3.67;2.00;;;;;;;;;;5021793;28;25075;-69
2023/12/29 10:25:18;;;;;;;6.43;2.38;;;;;;;;;;5025322;28;25073;-70
2023/12/29 10:27:44;;;;;;;3.90;2.13;;;;;;;;;;5027739;28;25060;-69
2023/12/29 10:30:10;;;;;;;7.32;2.50;;;;;;;;;;5030542;28;25056;-70
2023/12/29 10:32:36;;;;;;;8.68;2.42;;;;;;;;;;5026562;28;25053;-69
2023/12/29 10:35:12;;;;;;;6.30;2.25;;;;;;;;;;5030027;28;25140;-70
2023/12/29 10:37:38;;;;;;;5.15;2.35;;;;;;;;;;5033379;28;25051;-69
2023/12/29 10:40:05;;;;;;;7.50;1.90;;;;;;;;;;5034568;28;25067;-70
2023/12/29 10:42:31;;;;;;;9.68;2.63;;;;;;;;;;5030050;28;25073;-69
2023/12/29 10:45:07;;;;;;;7.03;2.17;;;;;;;;;;5024669;28;25057;-69
2023/12/29 10:47:35;;;;;;;9.93;2.70;;;;;;;;;;5024091;28;25086;-69
2023/12/29 10:50:01;;;;;;;8.15;2.13;;;;;;;;;;5027423;28;25047;-70
2023/12/29 10:52:27;;;;;;;8.07;2.28;;;;;;;;;;5024252;28;25073;-69
2023/12/29 10:55:04;;;;;;;13.45;3.08;;;;;;;;;;5025410;28;25114;-69
2023/12/29 10:57:30;;;;;;;12.38;2.38;;;;;;;;;;5024927;28;25057;-69
2023/12/29 10:59:56;;;;;;;8.32;2.85;;;;;;;;;;5023812;28;25056;-70
2023/12/29 11:02:22;;;;;;;16.70;3.28;;;;;;;;;;5025368;28;25072;-69
2023/12/29 11:04:50;;;;;;;11.18;3.15;;;;;;;;;;5024058;28;25096;-70
2023/12/29 11:07:16;;;;;;;10.07;3.17;;;;;;;;;;5024842;28;25077;-69
2023/12/29 11:09:42;;;;;;;9.30;2.92;;;;;;;;;;5022556;28;25065;-68
2023/12/29 11:12:10;;;;;;;9.15;3.13;;;;;;;;;;5023609;28;25051;-69
2023/12/29 11:14:36;;;;;;;14.73;3.72;;;;;;;;;;5021813;28;25059;-69
2023/12/29 11:17:03;;;;;;;13.07;3.45;;;;;;;;;;5023333;28;25057;-70
2023/12/29 11:19:29;;;;;;;13.93;3.30;;;;;;;;;;5022255;28;25051;-70
2023/12/29 11:21:56;;;;;;;19.42;4.07;;;;;;;;;;5023972;28;25071;-70
2023/12/29 11:24:22;;;;;;;20.02;3.75;;;;;;;;;;5021209;28;25105;-70
2023/12/29 11:26:50;;;;;;;15.27;3.40;;;;;;;;;;5023746;28;25091;-70
2023/12/29 11:29:16;;;;;;;16.77;4.60;;;;;;;;;;5022473;28;25057;-68
2023/12/29 11:31:43;;;;;;;15.63;3.65;;;;;;;;;;5025086;28;25091;-70
2023/12/29 11:34:20;;;;;;;13.82;3.58;;;;;;;;;;5027293;28;25144;-72
2023/12/29 11:36:46;;;;;;;14.43;3.53;;;;;;;;;;5028610;28;25066;-69
2023/12/29 11:39:29;;;;;;;19.13;4.13;;;;;;;;;;5029375;28;25169;-70
2023/12/29 11:41:58;;;;;;;23.92;3.90;;;;;;;;;;5025281;28;25066;-69
2023/12/29 11:44:27;;;;;;;20.05;5.25;;;;;;;;;;5026782;28;25049;-71
2023/12/29 11:46:53;;;;;;;27.00;5.00;;;;;;;;;;5024968;28;25074;-69
2023/12/29 11:49:20;;;;;;;21.58;5.15;;;;;;;;;;5028155;28;25153;-70
2023/12/29 11:51:50;;;;;;;16.45;4.38;;;;;;;;;;5025944;28;25073;-70
2023/12/29 11:54:26;;;;;;;20.17;4.07;;;;;;;;;;5027374;28;25163;-71
2023/12/29 11:56:55;;;;;;;19.83;5.18;;;;;;;;;;5024149;28;25055;-70
2023/12/29 11:59:23;;;;;;;26.90;6.03;;;;;;;;;;5023640;28;25073;-70
2023/12/29 12:01:50;;;;;;;25.23;4.60;;;;;;;;;;5025961;28;25067;-71
2023/12/29 12:04:36;;;;;;;24.30;5.93;;;;;;;;;;5025913;28;25066;-69
2023/12/29 12:07:03;;;;;;;20.73;4.68;;;;;;;;;;5028196;28;25145;-71
2023/12/29 12:09:29;;;;;;;20.55;4.88;;;;;;;;;;5025674;28;25077;-69
2023/12/29 12:11:55;;;;;;;22.67;5.25;;;;;;;;;;5027375;28;25112;-70
2023/12/29 12:14:39;;;;;;;21.52;5.72;;;;;;;;;;5024652;28;25125;-70
2023/12/29 12:17:05;;;;;;;24.98;5.55;;;;;;;;;;5023745;28;25100;-70
2023/12/29 12:19:35;;;;;;;24.33;5.43;;;;;;;;;;5024173;28;25080;-70
2023/12/29 12:22:02;;;;;;;27.70;5.85;;;;;;;;;;5023800;28;25123;-70
2023/12/29 12:24:28;;;;;;;22.92;4.30;;;;;;;;;;5026690;28;25078;-71
2023/12/29 12:26:55;;;;;;;31.40;6.18;;;;;;;;;;5026375;28;25066;-70
2023/12/29 12:29:21;;;;;;;21.27;5.00;;;;;;;;;;5022268;28;25116;-70
2023/12/29 12:31:54;;;;;;;27.92;5.15;;;;;;;;;;5023995;28;25059;-72
2023/12/29 12:34:20;;;;;;;24.35;5.15;;;;;;;;;;5025466;28;25072;-70
2023/12/29 12:36:50;;;;;;;22.25;4.80;;;;;;;;;;5024954;28;25110;-72
2023/12/29 12:39:16;;;;;;;20.42;4.50;;;;;;;;;;5025851;28;25049;-70
2023/12/29 12:41:42;;;;;;;24.27;4.38;;;;;;;;;;5024305;28;25050;-71
2023/12/29 12:44:11;;;;;;;16.52;4.70;;;;;;;;;;5020741;28;25085;-71
2023/12/29 12:46:40;;;;;;;15.75;4.18;;;;;;;;;;5024272;28;25062;-71
2023/12/29 12:49:06;;;;;;;20.00;4.43;;;;;;;;;;5022534;28;25082;-69
2023/12/29 12:51:35;;;;;;;18.52;3.97;;;;;;;;;;5025495;28;25079;-70
2023/12/29 12:54:01;;;;;;;17.15;5.47;;;;;;;;;;5026315;28;25048;-70
2023/12/29 12:56:28;;;;;;;19.60;4.53;;;;;;;;;;5028748;28;25086;-70
2023/12/29 12:58:58;;;;;;;16.90;4.32;;;;;;;;;;5022106;28;24949;-70
2023/12/29 13:01:25;;;;;;;19.55;4.88;;;;;;;;;;5025666;28;25099;-70
2023/12/29 13:03:51;;;;;;;12.00;4.43;;;;;;;;;;5023639;28;25069;-67
2023/12/29 13:06:17;;;;;;;18.73;4.18;;;;;;;;;;5022647;28;25050;-70
2023/12/29 13:08:44;;;;;;;15.10;4.47;;;;;;;;;;5019680;28;25076;-71
2023/12/29 13:11:12;;;;;;;21.30;6.07;;;;;;;;;;5025615;28;25078;-69
2023/12/29 13:13:39;;;;;;;21.48;5.53;;;;;;;;;;5026721;28;25085;-70
2023/12/29 13:16:05;;;;;;;25.83;6.40;;;;;;;;;;5025773;28;25076;-71
2023/12/29 13:18:31;;;;;;;20.55;5.07;;;;;;;;;;5049568;28;25086;-73
2023/12/29 13:20:58;;;;;;;25.02;5.82;;;;;;;;;;5040329;28;25126;-71
2023/12/29 13:23:27;;;;;;;29.52;5.32;;;;;;;;;;5034875;28;25101;-70
2023/12/29 13:26:02;;;;;;;18.52;5.65;;;;;;;;;;5045064;28;25132;-71
2023/12/29 13:28:28;;;;;;;22.23;5.57;;;;;;;;;;5032405;28;25106;-71
2023/12/29 13:30:55;;;;;;;28.15;5.00;;;;;;;;;;5033951;28;25185;-72
2023/12/29 13:33:35;;;;;;;19.98;5.72;;;;;;;;;;5032780;28;25053;-72
2023/12/29 13:36:09;;;;;;;25.20;5.60;;;;;;;;;;5022919;28;25084;-70
2023/12/29 13:38:38;;;;;;;20.45;5.07;;;;;;;;;;5025361;28;25064;-70
2023/12/29 13:41:10;;;;;;;22.50;5.75;;;;;;;;;;5026873;28;25062;-70
2023/12/29 13:43:38;;;;;;;25.85;5.97;;;;;;;;;;5029184;28;25149;-72
2023/12/29 13:46:05;;;;;;;26.88;6.35;;;;;;;;;;5029332;28;25096;-70
2023/12/29 13:48:32;;;;;;;28.27;5.50;;;;;;;;;;5020637;28;25063;-71
2023/12/29 13:50:58;;;;;;;26.90;5.82;;;;;;;;;;5024852;28;25119;-71
2023/12/29 13:53:24;;;;;;;29.23;6.53;;;;;;;;;;5022752;28;25076;-71
2023/12/29 13:55:50;;;;;;;38.28;6.95;;;;;;;;;;5025552;28;25070;-70
2023/12/29 13:58:17;;;;;;;32.92;6.60;;;;;;;;;;5024740;28;25085;-70
2023/12/29 14:00:43;;;;;;;35.22;6.72;;;;;;;;;;5025325;28;25071;-71
2023/12/29 14:03:23;;;;;;;23.65;5.15;;;;;;;;;;5026761;28;25126;-72
2023/12/29 14:05:56;;;;;;;30.23;5.72;;;;;;;;;;5026970;28;25073;-71
2023/12/29 14:08:34;;;;;;;32.05;6.80;;;;;;;;;;5025039;28;25055;-73
2023/12/29 14:11:00;;;;;;;23.75;7.93;;;;;;;;;;5022558;28;25066;-71
2023/12/29 14:13:27;;;;;;;28.10;6.60;;;;;;;;;;5022771;28;25058;-71
2023/12/29 14:15:52;;;;;;;17.77;5.50;;;;;;;;;;5022576;28;25114;-72
2023/12/29 14:18:18;;;;;;;21.25;5.50;;;;;;;;;;5023931;28;25100;-72
2023/12/29 14:20:44;;;;;;;27.15;5.20;;;;;;;;;;5022578;28;25062;-72
2023/12/29 14:23:10;;;;;;;20.63;4.75;;;;;;;;;;5020459;28;25105;-73
2023/12/29 14:25:37;;;;;;;23.08;4.75;;;;;;;;;;5021465;28;25116;-73
2023/12/29 14:28:16;;;;;;;19.10;4.15;;;;;;;;;;5023968;28;25149;-70
2023/12/29 14:30:42;;;;;;;18.77;6.75;;;;;;;;;;5018008;28;25134;-71
2023/12/29 14:33:08;;;;;;;12.80;4.43;;;;;;;;;;5024368;28;25063;-72